createdAt,value
2018-11-20T00:00:52.197Z,76.30
2018-11-20T00:03:29.472Z,77.00
2018-11-20T00:06:10.682Z,77.90
2018-11-20T00:08:46.927Z,77.90
2018-11-20T00:13:24.102Z,77.90
2018-11-20T00:16:01.132Z,78.20
2018-11-20T00:19:34.337Z,78.00
2018-11-20T00:22:14.603Z,78.20
2018-11-20T00:25:58.712Z,77.90
2018-11-20T00:28:33.952Z,77.60
2018-11-20T00:31:14.037Z,78.00
2018-11-20T00:33:55.261Z,77.90
2018-11-20T00:36:30.617Z,78.20
2018-11-20T00:39:10.697Z,78.00
2018-11-20T00:41:50.412Z,77.60
2018-11-20T00:57:17.417Z,77.60
2018-11-20T01:00:10.141Z,78.10
2018-11-20T01:02:45.476Z,76.90
2018-11-20T01:05:31.913Z,76.30
2018-11-20T01:08:07.238Z,75.80
2018-11-20T01:10:42.517Z,75.70
2018-11-20T01:14:21.139Z,76.10
2018-11-20T01:17:10.396Z,76.80
2018-11-20T01:20:47.101Z,77.70
2018-11-20T01:23:22.511Z,78.20
2018-11-20T01:25:57.840Z,77.70
2018-11-20T01:28:52.188Z,77.50
2018-11-20T01:31:31.571Z,77.30
2018-11-20T01:34:09.726Z,76.70
2018-11-20T01:36:47.301Z,76.40
2018-11-20T01:39:23.532Z,76.00
2018-11-20T01:42:01.217Z,76.60
2018-11-20T01:44:36.592Z,77.30
2018-11-20T01:47:11.907Z,77.90
2018-11-20T01:50:47.421Z,78.10
2018-11-20T01:53:23.181Z,77.40
2018-11-20T01:56:59.056Z,77.40
2018-11-20T02:01:42.322Z,76.80
2018-11-20T02:04:17.013Z,76.60
2018-11-20T02:19:54.572Z,76.70
2018-11-20T02:22:35.862Z,76.80
2018-11-20T02:25:13.038Z,77.90
2018-11-20T02:28:04.402Z,78.00
2018-11-20T02:31:11.422Z,77.70
2018-11-20T02:33:59.253Z,77.70
2018-11-20T02:38:40.986Z,77.50
2018-11-20T02:41:18.942Z,77.40
2018-11-20T02:44:00.792Z,77.50
2018-11-20T02:47:34.493Z,77.40
2018-11-20T02:50:12.837Z,77.00
2018-11-20T02:52:47.072Z,77.30
2018-11-20T02:55:22.312Z,77.50
2018-11-20T02:57:58.768Z,77.70
2018-11-20T03:00:33.927Z,77.70
2018-11-20T03:04:12.717Z,77.20
2018-11-20T03:06:47.857Z,77.00
2018-11-20T03:09:29.727Z,76.30
2018-11-20T03:13:09.452Z,76.00
2018-11-20T03:15:47.532Z,76.20
2018-11-20T03:18:24.497Z,76.30
2018-11-20T03:22:00.472Z,76.50
2018-11-20T03:24:35.843Z,77.00
2018-11-20T03:27:11.265Z,77.50
2018-11-20T03:30:03.767Z,77.40
2018-11-20T03:32:39.936Z,77.50
2018-11-20T03:35:15.183Z,77.50
2018-11-20T03:37:56.392Z,77.30
2018-11-20T03:41:29.376Z,77.70
2018-11-20T03:44:21.742Z,78.00
2018-11-20T03:46:57.772Z,78.00
2018-11-20T03:51:38.522Z,78.10
2018-11-20T03:54:22.662Z,78.00
2018-11-20T03:59:01.258Z,78.10
2018-11-20T04:01:51.118Z,78.10
2018-11-20T04:05:27.232Z,78.10
2018-11-20T04:08:09.327Z,78.10
2018-11-20T04:10:44.547Z,78.00
2018-11-20T04:14:17.631Z,78.20
2018-11-20T04:18:57.652Z,78.30
2018-11-20T04:21:37.030Z,78.20
2018-11-20T04:25:13.962Z,78.50
2018-11-20T04:28:23.792Z,78.40
2018-11-20T04:31:18.453Z,77.70
2018-11-20T04:36:00.993Z,77.50
2018-11-20T04:38:42.331Z,77.40
2018-11-20T04:41:24.517Z,77.10
2018-11-20T04:43:59.927Z,77.00
2018-11-20T04:46:40.652Z,77.30
2018-11-20T04:50:17.452Z,77.40
2018-11-20T04:52:52.732Z,77.40
2018-11-20T04:55:33.306Z,77.40
2018-11-20T05:00:15.422Z,78.10
2018-11-20T05:02:50.792Z,77.30
2018-11-20T05:05:27.963Z,76.90
2018-11-20T05:08:03.867Z,76.70
2018-11-20T05:10:43.048Z,76.50
2018-11-20T05:13:18.434Z,76.60
2018-11-20T05:15:52.792Z,76.50
2018-11-20T05:18:28.118Z,76.70
2018-11-20T05:21:04.204Z,76.90
2018-11-20T05:23:39.622Z,77.00
2018-11-20T05:26:17.356Z,77.60
2018-11-20T05:28:55.858Z,78.00
2018-11-20T05:32:02.455Z,77.60
2018-11-20T05:34:39.877Z,77.90
2018-11-20T05:37:14.197Z,77.80
2018-11-20T05:41:53.142Z,77.70
2018-11-20T05:46:31.758Z,77.30
2018-11-20T05:49:07.163Z,77.60
2018-11-20T05:51:42.273Z,78.40
2018-11-20T05:56:20.063Z,78.00
2018-11-20T05:59:31.256Z,78.10
2018-11-20T06:02:06.677Z,77.20
2018-11-20T06:04:56.129Z,77.10
2018-11-20T06:08:05.784Z,77.00
2018-11-20T06:10:40.912Z,76.30
2018-11-20T06:13:18.249Z,75.80
2018-11-20T06:16:53.042Z,75.20
2018-11-20T06:19:28.492Z,75.30
2018-11-20T06:23:04.398Z,74.60
2018-11-20T06:25:39.882Z,74.40
2018-11-20T06:28:15.612Z,73.50
2018-11-20T06:30:55.237Z,73.90
2018-11-20T06:33:31.877Z,73.60
2018-11-20T06:36:07.268Z,73.10
2018-11-20T06:39:46.218Z,73.30
2018-11-20T06:42:30.882Z,72.90
2018-11-20T06:46:05.797Z,72.80
2018-11-20T06:48:44.478Z,72.10
2018-11-20T06:51:21.178Z,71.60
2018-11-20T06:54:33.542Z,72.40
2018-11-20T06:59:15.103Z,71.40
2018-11-20T07:01:53.457Z,71.80
2018-11-20T07:05:04.870Z,71.70
2018-11-20T07:07:41.180Z,70.90
2018-11-20T07:10:16.512Z,70.10
2018-11-20T07:13:10.101Z,70.40
2018-11-20T07:15:53.245Z,70.40
2018-11-20T07:18:28.652Z,69.80
2018-11-20T07:21:05.092Z,69.00
2018-11-20T07:23:40.568Z,69.40
2018-11-20T07:26:16.935Z,69.00
2018-11-20T07:28:52.282Z,68.00
2018-11-20T07:31:27.847Z,67.90
2018-11-20T07:34:36.556Z,67.90
2018-11-20T07:39:20.123Z,66.90
2018-11-20T07:41:55.760Z,65.60
2018-11-20T07:44:34.098Z,63.90
2018-11-20T07:47:15.922Z,64.10
2018-11-20T07:50:07.802Z,64.20
2018-11-20T07:52:43.202Z,62.70
2018-11-20T07:55:19.771Z,62.80
2018-11-20T07:57:54.303Z,62.70
2018-11-20T08:00:30.422Z,62.20
2018-11-20T08:03:05.599Z,63.80
2018-11-20T08:05:41.212Z,62.70
2018-11-20T08:09:15.299Z,63.30
2018-11-20T08:12:55.282Z,63.80
2018-11-20T08:15:35.745Z,60.50
2018-11-20T08:18:12.903Z,60.90
2018-11-20T08:20:52.352Z,60.30
2018-11-20T08:24:42.109Z,59.30
2018-11-20T08:27:31.076Z,59.60
2018-11-20T08:30:28.793Z,58.80
2018-11-20T08:33:24.012Z,58.80
2018-11-20T08:36:11.478Z,58.30
2018-11-20T08:39:09.704Z,58.50
2018-11-20T08:41:58.584Z,57.50
2018-11-20T08:44:56.293Z,58.10
2018-11-20T08:47:50.929Z,57.90
2018-11-20T08:50:45.598Z,56.20
2018-11-20T08:56:33.612Z,57.10
2018-11-20T08:59:21.556Z,57.20
2018-11-20T09:04:57.907Z,56.30
2018-11-20T09:07:49.578Z,56.70
2018-11-20T09:10:47.503Z,55.60
2018-11-20T09:13:39.632Z,54.80
2018-11-20T09:16:38.130Z,55.90
2018-11-20T09:19:24.934Z,55.50
2018-11-20T09:22:19.762Z,55.20
2018-11-20T09:25:08.988Z,56.40
2018-11-20T09:28:06.723Z,55.30
2018-11-20T09:30:54.353Z,55.40
2018-11-20T09:33:58.332Z,55.50
2018-11-20T09:36:47.307Z,55.80
2018-11-20T09:39:41.762Z,54.70
2018-11-20T09:42:28.622Z,53.60
2018-11-20T09:45:49.202Z,54.10
2018-11-20T09:48:57.868Z,53.00
2018-11-20T09:51:45.152Z,52.20
2018-11-20T09:54:33.078Z,52.90
2018-11-20T09:57:16.620Z,53.10
2018-11-20T10:00:04.090Z,52.40
2018-11-20T10:02:43.207Z,53.00
2018-11-20T10:05:41.587Z,51.40
2018-11-20T10:08:28.872Z,53.20
2018-11-20T10:11:16.158Z,53.50
2018-11-20T10:14:08.279Z,54.30
2018-11-20T10:16:57.427Z,53.60
2018-11-20T10:19:38.588Z,55.60
2018-11-20T10:22:26.916Z,52.90
2018-11-20T10:25:19.576Z,54.20
2018-11-20T10:28:20.642Z,54.20
2018-11-20T10:31:18.372Z,56.70
2018-11-20T10:34:22.743Z,56.60
2018-11-20T10:37:10.373Z,57.40
2018-11-20T10:39:59.183Z,56.40
2018-11-20T10:43:06.870Z,56.10
2018-11-20T10:45:59.301Z,56.20
2018-11-20T10:48:46.338Z,55.90
2018-11-20T10:51:26.823Z,54.80
2018-11-20T10:54:14.379Z,55.50
2018-11-20T10:57:02.037Z,55.20
2018-11-20T10:59:56.689Z,55.10
2018-11-20T11:02:44.287Z,54.40
2018-11-20T11:05:46.727Z,52.80
2018-11-20T11:08:34.412Z,52.20
2018-11-20T11:11:32.747Z,52.60
2018-11-20T11:14:36.864Z,54.00
2018-11-20T11:17:28.122Z,55.50
2018-11-20T11:20:28.951Z,53.80
2018-11-20T11:23:13.019Z,52.40
2018-11-20T11:26:20.399Z,51.40
2018-11-20T11:29:07.334Z,50.50
2018-11-20T11:32:02.069Z,50.70
2018-11-20T11:34:54.052Z,50.20
2018-11-20T11:37:36.264Z,50.60
2018-11-20T11:40:44.579Z,50.40
2018-11-20T11:43:51.723Z,51.30
2018-11-20T11:46:46.714Z,52.20
2018-11-20T11:49:47.439Z,52.00
2018-11-20T11:52:27.207Z,52.70
2018-11-20T11:55:25.498Z,53.20
2018-11-20T11:58:16.890Z,52.90
2018-11-20T12:01:18.143Z,53.20
2018-11-20T12:06:50.306Z,52.60
2018-11-20T12:09:27.926Z,52.20
2018-11-20T12:12:26.008Z,53.80
2018-11-20T12:15:12.989Z,55.20
2018-11-20T12:18:17.178Z,54.50
2018-11-20T12:21:08.598Z,53.10
2018-11-20T12:23:57.323Z,54.50
2018-11-20T12:26:45.203Z,54.60
2018-11-20T12:29:34.788Z,54.40
2018-11-20T12:32:26.703Z,54.90
2018-11-20T12:35:33.099Z,55.20
2018-11-20T12:38:19.662Z,55.10
2018-11-20T12:41:17.524Z,54.00
2018-11-20T12:44:12.615Z,55.30
2018-11-20T12:47:09.115Z,55.10
2018-11-20T12:49:53.384Z,54.20
2018-11-20T12:52:45.469Z,54.00
2018-11-20T12:55:33.968Z,53.70
2018-11-20T12:58:22.015Z,52.30
2018-11-20T13:01:18.174Z,54.00
2018-11-20T13:04:18.519Z,54.60
2018-11-20T13:07:13.308Z,55.30
2018-11-20T13:10:17.473Z,55.50
2018-11-20T13:13:04.724Z,55.10
2018-11-20T13:16:09.000Z,55.70
2018-11-20T13:18:58.074Z,55.70
2018-11-20T13:21:50.354Z,57.40
2018-11-20T13:24:29.763Z,57.90
2018-11-20T13:27:23.834Z,59.00
2018-11-20T13:30:11.544Z,59.20
2018-11-20T13:33:09.234Z,59.60
2018-11-20T13:35:55.746Z,60.00
2018-11-20T13:38:43.241Z,59.60
2018-11-20T13:41:51.897Z,59.70
2018-11-20T13:44:39.811Z,59.60
2018-11-20T13:47:24.609Z,60.20
2018-11-20T13:50:16.862Z,60.70
2018-11-20T13:53:17.811Z,61.10
2018-11-20T13:56:09.900Z,61.00
2018-11-20T13:59:13.724Z,61.90
2018-11-20T14:02:05.427Z,63.40
2018-11-20T14:04:52.744Z,62.60
2018-11-20T14:07:54.344Z,63.60
2018-11-20T14:10:41.725Z,64.20
2018-11-20T14:13:22.286Z,64.50
2018-11-20T14:16:09.724Z,65.10
2018-11-20T14:19:04.324Z,64.60
2018-11-20T14:21:42.334Z,64.40
2018-11-20T14:24:49.225Z,64.80
2018-11-20T14:27:36.604Z,66.50
2018-11-20T14:30:27.199Z,67.10
2018-11-20T14:33:15.904Z,67.70
2018-11-20T14:36:03.759Z,68.30
2018-11-20T14:39:04.959Z,68.60
2018-11-20T14:41:52.218Z,68.40
2018-11-20T14:44:40.949Z,67.70
2018-11-20T14:47:28.743Z,67.30
2018-11-20T14:50:16.672Z,67.90
2018-11-20T14:52:59.161Z,68.60
2018-11-20T14:55:47.075Z,69.10
2018-11-20T14:58:31.817Z,68.90
2018-11-20T15:01:29.479Z,68.60
2018-11-20T15:04:16.708Z,68.60
2018-11-20T15:07:04.115Z,69.30
2018-11-20T15:09:59.781Z,69.40
2018-11-20T15:12:57.904Z,69.20
2018-11-20T15:15:55.798Z,69.10
2018-11-20T15:18:50.773Z,69.20
2018-11-20T15:21:34.544Z,69.30
2018-11-20T15:24:21.978Z,69.20
2018-11-20T15:27:10.824Z,68.90
2018-11-20T15:30:03.049Z,67.90
2018-11-20T15:32:59.864Z,68.10
2018-11-20T15:35:47.469Z,68.60
2018-11-20T15:38:34.095Z,68.90
2018-11-20T15:41:18.083Z,68.30
2018-11-20T15:44:15.924Z,68.50
2018-11-20T15:47:03.344Z,67.20
2018-11-20T15:49:54.755Z,66.10
2018-11-20T15:52:43.883Z,65.70
2018-11-20T15:55:38.914Z,65.90
2018-11-20T15:58:35.385Z,66.50
2018-11-20T16:01:23.380Z,66.50
2018-11-20T16:04:21.249Z,67.10
2018-11-20T16:07:21.989Z,67.40
2018-11-20T16:10:09.417Z,67.80
2018-11-20T16:13:07.136Z,68.20
2018-11-20T16:15:54.959Z,67.60
2018-11-20T16:18:46.846Z,67.00
2018-11-20T16:21:41.645Z,66.50
2018-11-20T16:24:33.053Z,66.40
2018-11-20T16:27:18.779Z,67.20
2018-11-20T16:30:16.629Z,66.90
2018-11-20T16:33:07.848Z,66.80
2018-11-20T16:35:56.963Z,67.10
2018-11-20T16:38:46.077Z,66.70
2018-11-20T16:41:50.254Z,66.10
2018-11-20T16:44:31.629Z,65.10
2018-11-20T16:47:19.758Z,63.80
2018-11-20T16:50:08.334Z,62.80
2018-11-20T16:52:56.209Z,62.30
2018-11-20T16:55:48.079Z,61.70
2018-11-20T16:58:43.309Z,61.60
2018-11-20T17:01:31.124Z,60.80
2018-11-20T17:04:38.165Z,60.70
2018-11-20T17:07:25.554Z,60.70
2018-11-20T17:10:13.045Z,60.10
2018-11-20T17:12:52.625Z,59.80
2018-11-20T17:15:29.739Z,59.90
2018-11-20T17:18:17.504Z,60.00
2018-11-20T17:21:05.324Z,60.20
2018-11-20T17:24:08.925Z,60.10
2018-11-20T17:26:56.884Z,60.10
2018-11-20T17:29:53.749Z,60.10
2018-11-20T17:32:40.754Z,60.10
2018-11-20T17:35:28.135Z,60.30
2018-11-20T17:38:20.163Z,60.60
2018-11-20T17:41:11.538Z,61.00
2018-11-20T17:43:55.974Z,61.40
2018-11-20T17:46:50.884Z,62.00
2018-11-20T17:49:48.754Z,62.00
2018-11-20T17:52:36.170Z,62.50
2018-11-20T17:55:31.959Z,62.70
2018-11-20T17:58:23.138Z,62.80
2018-11-20T18:01:14.908Z,63.70
2018-11-20T18:04:06.655Z,64.20
2018-11-20T18:07:01.779Z,64.70
2018-11-20T18:09:50.969Z,65.20
2018-11-20T18:12:38.628Z,65.10
2018-11-20T18:15:40.579Z,65.00
2018-11-20T18:18:41.518Z,65.00
2018-11-20T18:21:45.589Z,65.20
2018-11-20T18:24:33.259Z,65.40
2018-11-20T18:27:21.149Z,65.40
2018-11-20T18:30:16.239Z,66.10
2018-11-20T18:33:05.348Z,66.50
2018-11-20T18:36:06.489Z,67.00
2018-11-20T18:39:04.484Z,67.30
2018-11-20T18:42:02.514Z,67.40
2018-11-20T18:45:04.206Z,67.70
2018-11-20T18:47:52.280Z,67.90
2018-11-20T18:50:47.846Z,68.20
2018-11-20T18:53:34.969Z,68.40
2018-11-20T18:56:25.720Z,68.50
2018-11-20T18:59:17.194Z,68.90
2018-11-20T19:02:08.995Z,69.20
2018-11-20T19:05:00.244Z,69.40
2018-11-20T19:07:48.102Z,69.70
2018-11-20T19:10:42.584Z,69.80
2018-11-20T19:13:30.398Z,70.00
2018-11-20T19:16:17.434Z,70.20
2018-11-20T19:19:04.014Z,70.40
2018-11-20T19:21:51.528Z,70.10
2018-11-20T19:24:50.994Z,70.30
2018-11-20T19:27:46.570Z,70.40
2018-11-20T19:30:34.109Z,70.70
2018-11-20T19:33:21.624Z,70.30
2018-11-20T19:36:01.236Z,70.40
2018-11-20T19:38:50.059Z,70.20
2018-11-20T19:41:44.465Z,70.10
2018-11-20T19:44:33.619Z,70.20
2018-11-20T19:47:23.469Z,69.40
2018-11-20T19:53:14.103Z,69.10
2018-11-20T19:56:01.619Z,69.40
2018-11-20T19:58:50.784Z,69.40
2018-11-20T20:01:45.354Z,69.10
2018-11-20T20:04:46.399Z,69.00
2018-11-20T20:07:38.283Z,68.80
2018-11-20T20:10:42.862Z,68.90
2018-11-20T20:13:30.388Z,69.10
2018-11-20T20:16:37.339Z,69.40
2018-11-20T20:19:25.654Z,69.00
2018-11-20T20:22:17.554Z,69.00
2018-11-20T20:25:06.205Z,69.00
2018-11-20T20:28:07.421Z,69.10
2018-11-20T20:31:14.049Z,69.10
2018-11-20T20:34:12.359Z,69.40
2018-11-20T20:36:59.614Z,69.40
2018-11-20T20:39:46.999Z,69.40
2018-11-20T20:42:31.279Z,69.40
2018-11-20T20:45:19.974Z,69.70
2018-11-20T20:47:58.611Z,69.70
2018-11-20T20:50:49.798Z,70.20
2018-11-20T20:53:47.614Z,70.40
2018-11-20T20:56:45.859Z,70.50
2018-11-20T20:59:35.753Z,70.30
2018-11-20T21:02:36.968Z,70.40
2018-11-20T21:05:46.039Z,71.00
2018-11-20T21:08:36.329Z,70.60
2018-11-20T21:11:27.564Z,70.80
2018-11-20T21:14:34.464Z,70.90
2018-11-20T21:17:32.344Z,71.10
2018-11-20T21:20:21.289Z,71.20
2018-11-20T21:23:09.909Z,71.20
2018-11-20T21:25:50.753Z,71.40
2018-11-20T21:28:34.439Z,71.90
2018-11-20T21:31:22.144Z,72.80
2018-11-20T21:34:09.439Z,72.30
2018-11-20T21:36:56.609Z,72.30
2018-11-20T21:39:48.214Z,72.00
2018-11-20T21:42:46.154Z,72.00
2018-11-20T21:45:37.599Z,72.10
2018-11-20T21:48:41.849Z,72.30
2018-11-20T21:51:29.429Z,72.20
2018-11-20T21:54:18.169Z,72.00
2018-11-20T21:57:05.654Z,72.30
2018-11-20T21:59:56.107Z,72.10
2018-11-20T22:02:58.390Z,72.10
2018-11-20T22:05:49.968Z,72.50
2018-11-20T22:08:38.775Z,73.10
2018-11-20T22:11:26.405Z,73.60
2018-11-20T22:14:23.990Z,74.10
2018-11-20T22:17:11.274Z,73.90
2018-11-20T22:19:58.505Z,73.70
2018-11-20T22:22:45.515Z,73.20
2018-11-20T22:25:31.544Z,73.30
2018-11-20T22:28:29.719Z,73.20
2018-11-20T22:31:08.675Z,73.40
2018-11-20T22:33:55.987Z,73.60
2018-11-20T22:36:51.099Z,73.70
2018-11-20T22:39:47.018Z,73.90
2018-11-20T22:42:33.104Z,74.40
2018-11-20T22:45:20.617Z,74.30
2018-11-20T22:48:18.379Z,74.20
2018-11-20T22:51:07.449Z,74.30
2018-11-20T22:54:07.349Z,73.90
2018-11-20T22:56:56.115Z,74.30
2018-11-20T22:59:43.930Z,73.50
2018-11-20T23:02:30.875Z,73.60
2018-11-20T23:05:17.770Z,73.70
2018-11-20T23:07:51.645Z,73.80
2018-11-20T23:10:22.885Z,73.80
2018-11-20T23:12:52.979Z,73.80
2018-11-20T23:15:22.894Z,73.60
2018-11-20T23:17:53.113Z,74.10
2018-11-20T23:20:23.016Z,74.00
2018-11-20T23:22:53.034Z,74.00
2018-11-20T23:25:22.778Z,73.70
2018-11-20T23:27:52.673Z,74.40
2018-11-20T23:30:22.791Z,73.70
2018-11-20T23:32:52.920Z,74.30
2018-11-20T23:35:22.844Z,74.40
2018-11-20T23:37:52.679Z,75.00
2018-11-20T23:40:22.855Z,75.00
2018-11-20T23:42:53.034Z,75.30
2018-11-20T23:45:22.879Z,75.70
2018-11-20T23:47:52.514Z,73.10
2018-11-20T23:50:22.209Z,73.20
2018-11-20T23:52:52.081Z,73.50
2018-11-20T23:55:21.920Z,73.40
2018-11-20T23:57:51.643Z,73.40
